Trausdorf Airport LOAT

Flugplatz Daten

Name: Trausdorf Airport

Ident: LOAT

Lat: 47,79999924

Long: 16,56699944

Platzhöhe: 525 ft

IataCode:

City: Eisenstadt

Metar

2019/09/12 06:43
CYYU 120643Z 33002KT 15SM SKC M00/M00 A3037 RMK FZFG FLOATING 20FT AGL ALQDS SLP296

Taf

Gewünschte Webcam nicht vorhanden? Dann fügen Sie eine hinzu. Sie wird dann so schnell wie möglich freigeschaltet
Url: Title: